WetterOnline ( http://www.wetteronline.de )

Wetter aktuell Chemnitz

Aktuelles Wetter: Chemnitz (420m)

6-stündlich | Neueste Meldungen
Ortszeit Temperatur Wetter
Do, 21.06. 14:00 25.8° C wolkig
Do, 21.06. 8:00 22.0° C wolkenlos
Do, 21.06. 2:00 18.5° C wolkenlos
Mi, 20.06. 20:00 27.1° C bewölkt
Mi, 20.06. 14:00 26.3° C wolkig
Mi, 20.06. 8:00 18.5° C bewölkt
Mi, 20.06. 2:00 16.7° C wolkenlos
Di, 19.06. 20:00 20.4° C bedeckt
Ortszeit Temperatur Wetter
Do, 21.06. 19:30 16.0° C bewölkt
Do, 21.06. 19:20 16.0° C bewölkt
Do, 21.06. 19:10 15.9° C bewölkt
Do, 21.06. 19:00 15.2° C bewölkt
Do, 21.06. 18:50 15.2° C bewölkt
Do, 21.06. 18:40 15.6° C wolkig
Do, 21.06. 18:30 15.1° C wolkig
Do, 21.06. 18:00 14.9° C bedeckt
Do, 21.06. 17:30 14.9° C bedeckt
Do, 21.06. 17:00 15.1° C leichter Regen
Do, 21.06. 16:30 15.8° C bedeckt
Ortszeit Relative Feuchte Sichtweite
Do, 21.06. 14:00 38% 19 km
Do, 21.06. 8:00 64% 23 km
Do, 21.06. 2:00 74% 28 km
Mi, 20.06. 20:00 49% 30 km
Mi, 20.06. 14:00 45% 27 km
Mi, 20.06. 8:00 73% 23 km
Mi, 20.06. 2:00 82% 21 km
Di, 19.06. 20:00 63% 55 km
Ortszeit Relative Feuchte Sichtweite
Do, 21.06. 19:30 72% 40 km
Do, 21.06. 19:20 72% -
Do, 21.06. 19:10 71% -
Do, 21.06. 19:00 74% 35 km
Do, 21.06. 18:50 74% -
Do, 21.06. 18:40 73% -
Do, 21.06. 18:30 82% 16 km
Do, 21.06. 18:00 86% 14 km
Do, 21.06. 17:30 87% 15 km
Do, 21.06. 17:00 79% 8 km
Do, 21.06. 16:30 72% 50 km
Ortszeit Niederschlagsmenge Niederschlagsart
Do, 21.06. 14:00 0.0 l/m2 in 6 Std. -
Do, 21.06. 8:00 0.0 l/m2 in 12 Std. -
Do, 21.06. 2:00 0.0 l/m2 in 6 Std. -
Mi, 20.06. 20:00 0.1 l/m2 in 12 Std. Sprühregen
Mi, 20.06. 14:00 0.0 l/m2 in 6 Std. -
Mi, 20.06. 8:00 0.0 l/m2 in 12 Std. -
Mi, 20.06. 2:00 0.0 l/m2 in 6 Std. -
Di, 19.06. 20:00 0.0 l/m2 in 12 Std. -
Ortszeit Niederschlagsmenge Niederschlagsart
Do, 21.06. 19:30 0.0 l/m2 in 1 Std. -
Do, 21.06. 19:20 keine Meldung -
Do, 21.06. 19:10 keine Meldung -
Do, 21.06. 19:00 0.0 l/m2 in 1 Std. -
Do, 21.06. 18:50 keine Meldung -
Do, 21.06. 18:40 keine Meldung -
Do, 21.06. 18:30 0.0 l/m2 in 1 Std. -
Do, 21.06. 18:00 0.6 l/m2 in 1 Std. Regen
Do, 21.06. 17:30 0.6 l/m2 in 1 Std. Schneeregen
Do, 21.06. 17:00 0.1 l/m2 in 1 Std. Regen
Do, 21.06. 16:30 0.0 l/m2 in 1 Std. -
Ortszeit Stärke Spitze Richtung
km/h Bft. km/h Grad Sektor
Do, 21.06. 14:00 39 6 59 270° W
Do, 21.06. 8:00 15 3 20 220° SW
Do, 21.06. 2:00 11 2 18 210° SW
Mi, 20.06. 20:00 4 1 29 270° W
Mi, 20.06. 14:00 13 3 35 210° SW
Mi, 20.06. 8:00 7 2 14 110° O
Mi, 20.06. 2:00 6 1 15 200° S
Di, 19.06. 20:00 11 2 29 310° NW
Ortszeit Stärke Spitze Richtung
km/h Bft. km/h Grad Sektor
Do, 21.06. 19:30 14 3 22 360° N
Do, 21.06. 19:20 14 3 - 360° N
Do, 21.06. 19:10 11 2 - 360° N
Do, 21.06. 19:00 14 3 32 350° N
Do, 21.06. 18:50 14 3 - 350° N
Do, 21.06. 18:40 14 3 - 340° N
Do, 21.06. 18:30 17 3 31 10° N
Do, 21.06. 18:00 18 3 25 230° SW
Do, 21.06. 17:30 17 3 24 220° SW
Do, 21.06. 17:00 13 3 50 310° NW
Do, 21.06. 16:30 22 4 50 310° NW
Ortszeit Untergrenze Bedeckung Gattung
total tief tief mittel hoch
Do, 21.06. 14:00 1800 m 7/8 1/8 - - -
Do, 21.06. 8:00 - 0/8 0/8 - - -
Do, 21.06. 2:00 - 0/8 0/8 - - -
Mi, 20.06. 20:00 1800 m 7/8 - - - -
Mi, 20.06. 14:00 1500 m 8/8 7/8 - - -
Mi, 20.06. 8:00 1380 m 7/8 7/8 - - -
Mi, 20.06. 2:00 - 0/8 0/8 - - -
Di, 19.06. 20:00 1470 m 8/8 8/8 - - -
Ortszeit Bedeckungsgrad in Achtel und Wolkenuntergrenze
Do, 21.06. 19:30 5(1500m) 6(1800m) 7(7800m)
Do, 21.06. 19:20 5(1500m) 6(1800m) 7(7800m)
Do, 21.06. 19:10 6(1800m) 7(7800m)
Do, 21.06. 19:00 6(1800m) 7(8100m)
Do, 21.06. 18:50 6(1800m) 7(8100m)
Do, 21.06. 18:40 4(1800m) 7(8100m)
Do, 21.06. 18:30 2(540m) 4(1800m) 7(8100m)
Do, 21.06. 18:00 3(690m) 7(2100m) 8(2700m)
Do, 21.06. 17:30 1(<30m) 4(1500m) 8(1800m)
Do, 21.06. 17:00 4(720m) 7(1050m) 8(1500m)
Do, 21.06. 16:30 7(720m) 8(870m)
Ortszeit Luftdruck NN (hPa) Tendenz (hPa in 3 Std.)
Do, 21.06. 14:00 1009 - 0,4
Do, 21.06. 8:00 1013 - 1,2
Do, 21.06. 2:00 1016 - 0,7
Mi, 20.06. 20:00 1016 - 1,5
Mi, 20.06. 14:00 1020 - 1,5
Mi, 20.06. 8:00 1023 - 0,2
Mi, 20.06. 2:00 1024 + 0,3
Di, 19.06. 20:00 1023 + 0,4
Ortszeit Luftdruck NN (hPa) Tendenz (hPa in 3 Std.)
Do, 21.06. 19:30 1015 + 0,4
Do, 21.06. 19:20 1015 keine Meldung
Do, 21.06. 19:10 1015 keine Meldung
Do, 21.06. 19:00 1016 + 1,1
Do, 21.06. 18:50 1016 keine Meldung
Do, 21.06. 18:40 1015 keine Meldung
Do, 21.06. 18:30 1015 + 1,4
Do, 21.06. 18:00 1015 + 1,5
Do, 21.06. 17:30 1015 + 3,3
Do, 21.06. 17:00 1015 + 3,8
Do, 21.06. 16:30 1015 + 4,1
Ortszeit Schneehöhe (cm)
Do, 21.06. 14:00 -
Do, 21.06. 8:00 -
Do, 21.06. 2:00 -
Mi, 20.06. 20:00 -
Mi, 20.06. 14:00 -
Mi, 20.06. 8:00 -
Mi, 20.06. 2:00 -
Di, 19.06. 20:00 -
Ortszeit Schneehöhe (cm)
Do, 21.06. 19:30 -
Do, 21.06. 19:20 -
Do, 21.06. 19:10 -
Do, 21.06. 19:00 -
Do, 21.06. 18:50 -
Do, 21.06. 18:40 -
Do, 21.06. 18:30 -
Do, 21.06. 18:00 -
Do, 21.06. 17:30 -
Do, 21.06. 17:00 -
Do, 21.06. 16:30 -
Link zu dieser Seite / Seite empfehlen

Das Wetter in ...